sensor_id;sensor_type;location;lat;lon;timestamp;P1;durP1;ratioP1;P2;durP2;ratioP2
51242;SDS011;37812;47.556;18.718;2022-08-19T00:01:39;9.52;;;5.43;;
51242;SDS011;37812;47.556;18.718;2022-08-19T00:04:07;8.95;;;5.10;;
51242;SDS011;37812;47.556;18.718;2022-08-19T00:06:37;10.77;;;5.70;;
51242;SDS011;37812;47.556;18.718;2022-08-19T00:09:05;10.35;;;5.53;;
51242;SDS011;37812;47.556;18.718;2022-08-19T00:11:32;10.60;;;5.68;;
51242;SDS011;37812;47.556;18.718;2022-08-19T00:14:00;9.00;;;5.20;;
51242;SDS011;37812;47.556;18.718;2022-08-19T00:16:26;11.70;;;5.62;;
51242;SDS011;37812;47.556;18.718;2022-08-19T00:18:53;11.02;;;5.68;;
51242;SDS011;37812;47.556;18.718;2022-08-19T00:21:21;9.73;;;5.60;;
51242;SDS011;37812;47.556;18.718;2022-08-19T00:23:47;11.55;;;6.30;;
51242;SDS011;37812;47.556;18.718;2022-08-19T00:26:13;11.12;;;5.68;;
51242;SDS011;37812;47.556;18.718;2022-08-19T00:28:39;9.15;;;5.45;;
51242;SDS011;37812;47.556;18.718;2022-08-19T00:31:06;11.00;;;5.62;;
51242;SDS011;37812;47.556;18.718;2022-08-19T00:33:33;10.05;;;5.78;;
51242;SDS011;37812;47.556;18.718;2022-08-19T00:36:04;9.80;;;5.65;;
51242;SDS011;37812;47.556;18.718;2022-08-19T00:38:32;10.18;;;5.72;;
51242;SDS011;37812;47.556;18.718;2022-08-19T00:40:59;9.35;;;5.37;;
51242;SDS011;37812;47.556;18.718;2022-08-19T00:43:26;9.20;;;5.28;;
51242;SDS011;37812;47.556;18.718;2022-08-19T00:45:53;11.27;;;5.93;;
51242;SDS011;37812;47.556;18.718;2022-08-19T00:48:20;9.00;;;5.18;;
51242;SDS011;37812;47.556;18.718;2022-08-19T00:50:50;9.88;;;5.37;;
51242;SDS011;37812;47.556;18.718;2022-08-19T00:53:20;10.88;;;5.47;;
51242;SDS011;37812;47.556;18.718;2022-08-19T00:55:49;10.40;;;5.62;;
51242;SDS011;37812;47.556;18.718;2022-08-19T00:58:19;9.63;;;5.85;;
51242;SDS011;37812;47.556;18.718;2022-08-19T01:00:47;12.30;;;6.40;;
51242;SDS011;37812;47.556;18.718;2022-08-19T01:03:15;9.60;;;5.47;;
51242;SDS011;37812;47.556;18.718;2022-08-19T01:05:43;9.60;;;5.70;;
51242;SDS011;37812;47.556;18.718;2022-08-19T01:08:10;9.77;;;5.90;;
51242;SDS011;37812;47.556;18.718;2022-08-19T01:10:39;9.40;;;5.03;;
51242;SDS011;37812;47.556;18.718;2022-08-19T01:13:09;10.40;;;5.37;;
51242;SDS011;37812;47.556;18.718;2022-08-19T01:15:42;10.90;;;5.87;;
51242;SDS011;37812;47.556;18.718;2022-08-19T01:18:13;9.13;;;5.32;;
51242;SDS011;37812;47.556;18.718;2022-08-19T01:20:44;9.25;;;5.50;;
51242;SDS011;37812;47.556;18.718;2022-08-19T01:23:13;9.77;;;5.60;;
51242;SDS011;37812;47.556;18.718;2022-08-19T01:25:50;9.88;;;5.70;;
51242;SDS011;37812;47.556;18.718;2022-08-19T01:28:18;10.63;;;5.62;;
51242;SDS011;37812;47.556;18.718;2022-08-19T01:30:47;9.82;;;5.53;;
51242;SDS011;37812;47.556;18.718;2022-08-19T01:33:13;9.43;;;5.25;;
51242;SDS011;37812;47.556;18.718;2022-08-19T01:35:43;11.12;;;5.60;;
51242;SDS011;37812;47.556;18.718;2022-08-19T01:38:10;10.43;;;5.70;;
51242;SDS011;37812;47.556;18.718;2022-08-19T01:40:56;8.50;;;5.00;;
51242;SDS011;37812;47.556;18.718;2022-08-19T01:43:23;10.20;;;5.80;;
51242;SDS011;37812;47.556;18.718;2022-08-19T01:45:49;10.20;;;5.37;;
51242;SDS011;37812;47.556;18.718;2022-08-19T01:48:16;9.93;;;5.60;;
51242;SDS011;37812;47.556;18.718;2022-08-19T01:50:42;10.23;;;5.72;;
51242;SDS011;37812;47.556;18.718;2022-08-19T01:53:09;10.23;;;5.43;;
51242;SDS011;37812;47.556;18.718;2022-08-19T01:55:38;9.48;;;5.57;;
51242;SDS011;37812;47.556;18.718;2022-08-19T01:58:07;10.68;;;5.57;;
51242;SDS011;37812;47.556;18.718;2022-08-19T02:00:47;11.05;;;5.62;;
51242;SDS011;37812;47.556;18.718;2022-08-19T02:03:14;9.60;;;5.43;;
51242;SDS011;37812;47.556;18.718;2022-08-19T02:05:41;9.30;;;5.25;;
51242;SDS011;37812;47.556;18.718;2022-08-19T02:08:09;9.00;;;5.25;;
51242;SDS011;37812;47.556;18.718;2022-08-19T02:10:38;11.50;;;5.60;;
51242;SDS011;37812;47.556;18.718;2022-08-19T02:13:06;10.00;;;5.50;;
51242;SDS011;37812;47.556;18.718;2022-08-19T02:15:32;10.50;;;5.78;;
51242;SDS011;37812;47.556;18.718;2022-08-19T02:17:58;9.93;;;5.70;;
51242;SDS011;37812;47.556;18.718;2022-08-19T02:20:24;9.77;;;5.22;;
51242;SDS011;37812;47.556;18.718;2022-08-19T02:22:50;15.75;;;5.43;;
51242;SDS011;37812;47.556;18.718;2022-08-19T02:25:16;9.15;;;5.12;;
51242;SDS011;37812;47.556;18.718;2022-08-19T02:27:42;9.57;;;5.15;;
51242;SDS011;37812;47.556;18.718;2022-08-19T02:30:10;9.50;;;5.20;;
51242;SDS011;37812;47.556;18.718;2022-08-19T02:32:38;9.75;;;5.15;;
51242;SDS011;37812;47.556;18.718;2022-08-19T02:35:04;10.27;;;5.18;;
51242;SDS011;37812;47.556;18.718;2022-08-19T02:37:31;9.32;;;5.12;;
51242;SDS011;37812;47.556;18.718;2022-08-19T02:40:15;10.90;;;5.28;;
51242;SDS011;37812;47.556;18.718;2022-08-19T02:42:43;9.32;;;5.35;;
51242;SDS011;37812;47.556;18.718;2022-08-19T02:45:14;9.85;;;5.15;;
51242;SDS011;37812;47.556;18.718;2022-08-19T02:47:40;8.85;;;4.93;;
51242;SDS011;37812;47.556;18.718;2022-08-19T02:50:06;9.52;;;5.57;;
51242;SDS011;37812;47.556;18.718;2022-08-19T02:52:32;10.43;;;5.47;;
51242;SDS011;37812;47.556;18.718;2022-08-19T02:54:59;9.57;;;5.60;;
51242;SDS011;37812;47.556;18.718;2022-08-19T02:57:25;9.57;;;5.25;;
51242;SDS011;37812;47.556;18.718;2022-08-19T02:59:51;9.93;;;5.53;;
51242;SDS011;37812;47.556;18.718;2022-08-19T03:02:18;9.70;;;5.18;;
51242;SDS011;37812;47.556;18.718;2022-08-19T03:04:44;9.05;;;4.93;;
51242;SDS011;37812;47.556;18.718;2022-08-19T03:07:12;10.88;;;5.82;;
51242;SDS011;37812;47.556;18.718;2022-08-19T03:09:39;9.68;;;5.20;;
51242;SDS011;37812;47.556;18.718;2022-08-19T03:12:05;9.45;;;5.68;;
51242;SDS011;37812;47.556;18.718;2022-08-19T03:14:32;9.98;;;5.55;;
51242;SDS011;37812;47.556;18.718;2022-08-19T03:16:59;9.80;;;5.28;;
51242;SDS011;37812;47.556;18.718;2022-08-19T03:19:25;9.55;;;5.35;;
51242;SDS011;37812;47.556;18.718;2022-08-19T03:21:52;9.27;;;5.03;;
51242;SDS011;37812;47.556;18.718;2022-08-19T03:24:19;11.00;;;5.72;;
51242;SDS011;37812;47.556;18.718;2022-08-19T03:26:50;9.75;;;5.40;;
51242;SDS011;37812;47.556;18.718;2022-08-19T03:29:18;11.07;;;5.53;;
51242;SDS011;37812;47.556;18.718;2022-08-19T03:31:45;10.63;;;5.30;;
51242;SDS011;37812;47.556;18.718;2022-08-19T03:34:12;8.95;;;5.07;;
51242;SDS011;37812;47.556;18.718;2022-08-19T03:36:40;9.30;;;5.35;;
51242;SDS011;37812;47.556;18.718;2022-08-19T03:39:06;10.73;;;5.35;;
51242;SDS011;37812;47.556;18.718;2022-08-19T03:41:36;10.20;;;6.07;;
51242;SDS011;37812;47.556;18.718;2022-08-19T03:44:03;10.40;;;5.50;;
51242;SDS011;37812;47.556;18.718;2022-08-19T03:46:33;10.88;;;5.80;;
51242;SDS011;37812;47.556;18.718;2022-08-19T03:49:02;9.63;;;5.82;;
51242;SDS011;37812;47.556;18.718;2022-08-19T03:51:34;11.13;;;6.23;;
51242;SDS011;37812;47.556;18.718;2022-08-19T03:54:02;10.50;;;6.00;;
51242;SDS011;37812;47.556;18.718;2022-08-19T03:56:32;10.20;;;5.57;;
51242;SDS011;37812;47.556;18.718;2022-08-19T03:59:00;9.70;;;5.57;;
51242;SDS011;37812;47.556;18.718;2022-08-19T04:01:27;8.60;;;5.03;;
51242;SDS011;37812;47.556;18.718;2022-08-19T04:03:57;9.48;;;5.87;;
51242;SDS011;37812;47.556;18.718;2022-08-19T04:06:31;9.98;;;5.40;;
51242;SDS011;37812;47.556;18.718;2022-08-19T04:09:00;9.93;;;5.53;;
51242;SDS011;37812;47.556;18.718;2022-08-19T04:11:30;11.55;;;5.70;;
51242;SDS011;37812;47.556;18.718;2022-08-19T04:14:00;10.55;;;5.93;;
51242;SDS011;37812;47.556;18.718;2022-08-19T04:16:26;9.35;;;5.20;;
51242;SDS011;37812;47.556;18.718;2022-08-19T04:18:56;9.95;;;5.75;;
51242;SDS011;37812;47.556;18.718;2022-08-19T04:21:26;10.30;;;5.62;;
51242;SDS011;37812;47.556;18.718;2022-08-19T04:23:54;10.95;;;5.60;;
51242;SDS011;37812;47.556;18.718;2022-08-19T04:26:22;10.20;;;6.00;;
51242;SDS011;37812;47.556;18.718;2022-08-19T04:28:50;11.05;;;6.07;;
51242;SDS011;37812;47.556;18.718;2022-08-19T04:31:21;10.98;;;6.05;;
51242;SDS011;37812;47.556;18.718;2022-08-19T04:33:55;9.68;;;5.68;;
51242;SDS011;37812;47.556;18.718;2022-08-19T04:36:33;10.55;;;6.20;;
51242;SDS011;37812;47.556;18.718;2022-08-19T04:39:01;11.12;;;6.10;;
51242;SDS011;37812;47.556;18.718;2022-08-19T04:41:30;10.30;;;5.90;;
51242;SDS011;37812;47.556;18.718;2022-08-19T04:44:17;11.10;;;6.00;;
51242;SDS011;37812;47.556;18.718;2022-08-19T04:46:47;9.98;;;5.97;;
51242;SDS011;37812;47.556;18.718;2022-08-19T04:49:15;12.70;;;6.45;;
51242;SDS011;37812;47.556;18.718;2022-08-19T04:51:43;10.85;;;5.80;;
51242;SDS011;37812;47.556;18.718;2022-08-19T04:54:10;9.38;;;6.03;;
51242;SDS011;37812;47.556;18.718;2022-08-19T04:56:38;10.80;;;6.18;;
51242;SDS011;37812;47.556;18.718;2022-08-19T04:59:05;11.40;;;6.20;;
51242;SDS011;37812;47.556;18.718;2022-08-19T05:01:32;9.35;;;5.75;;
51242;SDS011;37812;47.556;18.718;2022-08-19T05:03:59;10.20;;;5.70;;
51242;SDS011;37812;47.556;18.718;2022-08-19T05:06:27;10.23;;;6.32;;
51242;SDS011;37812;47.556;18.718;2022-08-19T05:08:54;10.52;;;6.12;;
51242;SDS011;37812;47.556;18.718;2022-08-19T05:11:27;10.00;;;6.00;;
51242;SDS011;37812;47.556;18.718;2022-08-19T05:13:55;12.07;;;6.75;;
51242;SDS011;37812;47.556;18.718;2022-08-19T05:16:22;9.50;;;6.35;;
51242;SDS011;37812;47.556;18.718;2022-08-19T05:18:50;12.82;;;6.20;;
51242;SDS011;37812;47.556;18.718;2022-08-19T05:21:35;10.55;;;6.47;;
51242;SDS011;37812;47.556;18.718;2022-08-19T05:24:20;10.35;;;6.40;;
51242;SDS011;37812;47.556;18.718;2022-08-19T05:26:48;9.88;;;5.95;;
51242;SDS011;37812;47.556;18.718;2022-08-19T05:29:17;11.05;;;6.78;;
51242;SDS011;37812;47.556;18.718;2022-08-19T05:31:47;9.60;;;6.05;;
51242;SDS011;37812;47.556;18.718;2022-08-19T05:34:17;10.77;;;7.10;;
51242;SDS011;37812;47.556;18.718;2022-08-19T05:36:47;10.43;;;6.53;;
51242;SDS011;37812;47.556;18.718;2022-08-19T05:39:15;11.35;;;6.95;;
51242;SDS011;37812;47.556;18.718;2022-08-19T05:41:45;10.35;;;5.97;;
51242;SDS011;37812;47.556;18.718;2022-08-19T05:44:12;11.48;;;7.10;;
51242;SDS011;37812;47.556;18.718;2022-08-19T05:46:39;9.93;;;6.40;;
51242;SDS011;37812;47.556;18.718;2022-08-19T05:49:08;10.25;;;6.53;;
51242;SDS011;37812;47.556;18.718;2022-08-19T05:51:35;9.95;;;6.70;;
51242;SDS011;37812;47.556;18.718;2022-08-19T05:54:03;9.88;;;6.30;;
51242;SDS011;37812;47.556;18.718;2022-08-19T05:56:31;10.60;;;6.53;;
51242;SDS011;37812;47.556;18.718;2022-08-19T05:58:57;10.45;;;6.65;;
51242;SDS011;37812;47.556;18.718;2022-08-19T06:01:24;11.02;;;6.70;;
51242;SDS011;37812;47.556;18.718;2022-08-19T06:03:51;9.80;;;6.53;;
51242;SDS011;37812;47.556;18.718;2022-08-19T06:06:17;9.88;;;6.50;;
51242;SDS011;37812;47.556;18.718;2022-08-19T06:08:44;10.18;;;7.05;;
51242;SDS011;37812;47.556;18.718;2022-08-19T06:14:00;9.30;;;6.50;;
51242;SDS011;37812;47.556;18.718;2022-08-19T06:16:28;10.65;;;6.22;;
51242;SDS011;37812;47.556;18.718;2022-08-19T06:18:58;11.75;;;6.30;;
51242;SDS011;37812;47.556;18.718;2022-08-19T06:21:26;10.05;;;6.22;;
51242;SDS011;37812;47.556;18.718;2022-08-19T06:23:53;8.93;;;5.80;;
51242;SDS011;37812;47.556;18.718;2022-08-19T06:26:21;9.38;;;5.78;;
51242;SDS011;37812;47.556;18.718;2022-08-19T06:28:48;9.35;;;6.15;;
51242;SDS011;37812;47.556;18.718;2022-08-19T06:31:17;9.30;;;6.05;;
51242;SDS011;37812;47.556;18.718;2022-08-19T06:36:56;10.75;;;6.15;;
51242;SDS011;37812;47.556;18.718;2022-08-19T06:39:05;12.27;;;6.32;;
51242;SDS011;37812;47.556;18.718;2022-08-19T06:41:37;9.98;;;6.20;;
51242;SDS011;37812;47.556;18.718;2022-08-19T06:44:06;9.63;;;5.78;;
51242;SDS011;37812;47.556;18.718;2022-08-19T06:46:33;9.73;;;6.20;;
51242;SDS011;37812;47.556;18.718;2022-08-19T06:48:59;9.73;;;5.68;;
51242;SDS011;37812;47.556;18.718;2022-08-19T06:51:25;10.27;;;6.05;;
51242;SDS011;37812;47.556;18.718;2022-08-19T06:53:52;9.90;;;6.00;;
51242;SDS011;37812;47.556;18.718;2022-08-19T06:56:21;9.77;;;6.12;;
51242;SDS011;37812;47.556;18.718;2022-08-19T06:59:04;9.85;;;5.85;;
51242;SDS011;37812;47.556;18.718;2022-08-19T07:01:40;9.88;;;6.40;;
51242;SDS011;37812;47.556;18.718;2022-08-19T07:04:12;9.15;;;5.70;;
51242;SDS011;37812;47.556;18.718;2022-08-19T07:06:41;10.13;;;5.80;;
51242;SDS011;37812;47.556;18.718;2022-08-19T07:09:08;9.95;;;6.15;;
51242;SDS011;37812;47.556;18.718;2022-08-19T07:11:36;9.77;;;5.90;;
51242;SDS011;37812;47.556;18.718;2022-08-19T07:14:02;10.43;;;6.05;;
51242;SDS011;37812;47.556;18.718;2022-08-19T07:16:28;10.18;;;6.32;;
51242;SDS011;37812;47.556;18.718;2022-08-19T07:18:55;9.40;;;6.10;;
51242;SDS011;37812;47.556;18.718;2022-08-19T07:21:24;9.18;;;6.10;;
51242;SDS011;37812;47.556;18.718;2022-08-19T07:23:53;9.23;;;5.75;;
51242;SDS011;37812;47.556;18.718;2022-08-19T07:26:22;9.20;;;6.15;;
51242;SDS011;37812;47.556;18.718;2022-08-19T07:28:50;9.40;;;5.80;;
51242;SDS011;37812;47.556;18.718;2022-08-19T07:31:19;9.35;;;6.35;;
51242;SDS011;37812;47.556;18.718;2022-08-19T07:33:47;11.85;;;6.05;;
51242;SDS011;37812;47.556;18.718;2022-08-19T07:36:16;9.27;;;6.10;;
51242;SDS011;37812;47.556;18.718;2022-08-19T07:38:45;9.13;;;5.95;;
51242;SDS011;37812;47.556;18.718;2022-08-19T07:41:15;9.35;;;5.70;;
51242;SDS011;37812;47.556;18.718;2022-08-19T07:43:44;9.40;;;5.70;;
51242;SDS011;37812;47.556;18.718;2022-08-19T07:46:11;9.50;;;6.28;;
51242;SDS011;37812;47.556;18.718;2022-08-19T07:48:39;9.65;;;6.32;;
51242;SDS011;37812;47.556;18.718;2022-08-19T07:51:08;8.95;;;6.05;;
51242;SDS011;37812;47.556;18.718;2022-08-19T07:53:36;9.05;;;6.20;;
51242;SDS011;37812;47.556;18.718;2022-08-19T07:56:03;9.10;;;6.22;;
51242;SDS011;37812;47.556;18.718;2022-08-19T07:58:34;10.45;;;6.07;;
51242;SDS011;37812;47.556;18.718;2022-08-19T08:01:04;10.23;;;6.30;;
51242;SDS011;37812;47.556;18.718;2022-08-19T08:03:31;9.00;;;5.97;;
51242;SDS011;37812;47.556;18.718;2022-08-19T08:06:16;9.15;;;5.85;;
51242;SDS011;37812;47.556;18.718;2022-08-19T08:09:01;9.52;;;6.32;;
51242;SDS011;37812;47.556;18.718;2022-08-19T08:11:42;9.63;;;6.05;;
51242;SDS011;37812;47.556;18.718;2022-08-19T08:14:14;9.32;;;6.40;;
51242;SDS011;37812;47.556;18.718;2022-08-19T08:16:43;11.40;;;6.20;;
51242;SDS011;37812;47.556;18.718;2022-08-19T08:19:11;9.60;;;6.30;;
51242;SDS011;37812;47.556;18.718;2022-08-19T08:21:40;10.05;;;6.35;;
51242;SDS011;37812;47.556;18.718;2022-08-19T08:24:07;9.02;;;6.32;;
51242;SDS011;37812;47.556;18.718;2022-08-19T08:26:33;9.63;;;6.22;;
51242;SDS011;37812;47.556;18.718;2022-08-19T08:28:59;8.93;;;5.93;;
51242;SDS011;37812;47.556;18.718;2022-08-19T08:31:25;9.40;;;5.93;;
51242;SDS011;37812;47.556;18.718;2022-08-19T08:33:51;9.10;;;5.75;;
51242;SDS011;37812;47.556;18.718;2022-08-19T08:36:17;9.95;;;6.22;;
51242;SDS011;37812;47.556;18.718;2022-08-19T08:38:43;9.10;;;5.68;;
51242;SDS011;37812;47.556;18.718;2022-08-19T08:41:16;8.95;;;5.75;;
51242;SDS011;37812;47.556;18.718;2022-08-19T08:43:59;10.15;;;6.20;;
51242;SDS011;37812;47.556;18.718;2022-08-19T08:46:30;9.70;;;6.40;;
51242;SDS011;37812;47.556;18.718;2022-08-19T08:49:18;9.07;;;5.93;;
51242;SDS011;37812;47.556;18.718;2022-08-19T08:51:54;9.07;;;6.20;;
51242;SDS011;37812;47.556;18.718;2022-08-19T08:54:37;9.30;;;6.18;;
51242;SDS011;37812;47.556;18.718;2022-08-19T08:57:11;11.10;;;5.97;;
51242;SDS011;37812;47.556;18.718;2022-08-19T08:59:40;9.75;;;5.80;;
51242;SDS011;37812;47.556;18.718;2022-08-19T09:02:09;9.10;;;6.03;;
51242;SDS011;37812;47.556;18.718;2022-08-19T09:04:35;8.93;;;5.78;;
51242;SDS011;37812;47.556;18.718;2022-08-19T09:07:10;8.88;;;5.78;;
51242;SDS011;37812;47.556;18.718;2022-08-19T09:09:52;11.30;;;6.68;;
51242;SDS011;37812;47.556;18.718;2022-08-19T09:12:39;10.13;;;6.20;;
51242;SDS011;37812;47.556;18.718;2022-08-19T09:15:34;8.93;;;5.90;;
51242;SDS011;37812;47.556;18.718;2022-08-19T09:18:13;9.23;;;6.00;;
51242;SDS011;37812;47.556;18.718;2022-08-19T09:20:42;11.90;;;6.53;;
51242;SDS011;37812;47.556;18.718;2022-08-19T09:23:08;9.52;;;5.85;;
51242;SDS011;37812;47.556;18.718;2022-08-19T09:25:37;8.93;;;5.65;;
51242;SDS011;37812;47.556;18.718;2022-08-19T09:28:06;8.82;;;5.70;;
51242;SDS011;37812;47.556;18.718;2022-08-19T09:30:33;9.68;;;5.93;;
51242;SDS011;37812;47.556;18.718;2022-08-19T09:33:05;10.13;;;5.90;;
51242;SDS011;37812;47.556;18.718;2022-08-19T09:35:31;9.75;;;6.00;;
51242;SDS011;37812;47.556;18.718;2022-08-19T09:37:57;8.95;;;5.82;;
51242;SDS011;37812;47.556;18.718;2022-08-19T09:40:25;9.77;;;5.80;;
51242;SDS011;37812;47.556;18.718;2022-08-19T09:42:54;10.55;;;6.25;;
51242;SDS011;37812;47.556;18.718;2022-08-19T09:45:22;8.82;;;5.50;;
51242;SDS011;37812;47.556;18.718;2022-08-19T09:47:49;8.82;;;5.60;;
51242;SDS011;37812;47.556;18.718;2022-08-19T09:50:16;9.13;;;5.78;;
51242;SDS011;37812;47.556;18.718;2022-08-19T09:52:44;8.95;;;5.62;;
51242;SDS011;37812;47.556;18.718;2022-08-19T09:55:10;10.68;;;6.15;;
51242;SDS011;37812;47.556;18.718;2022-08-19T09:57:37;8.60;;;5.50;;
51242;SDS011;37812;47.556;18.718;2022-08-19T10:00:04;9.48;;;5.50;;
51242;SDS011;37812;47.556;18.718;2022-08-19T10:02:33;8.98;;;6.12;;
51242;SDS011;37812;47.556;18.718;2022-08-19T10:05:00;9.48;;;6.22;;
51242;SDS011;37812;47.556;18.718;2022-08-19T10:07:45;9.50;;;5.93;;
51242;SDS011;37812;47.556;18.718;2022-08-19T10:10:11;9.18;;;5.80;;
51242;SDS011;37812;47.556;18.718;2022-08-19T10:12:37;10.63;;;5.85;;
51242;SDS011;37812;47.556;18.718;2022-08-19T10:15:04;8.63;;;5.40;;
51242;SDS011;37812;47.556;18.718;2022-08-19T10:17:31;9.68;;;5.73;;
51242;SDS011;37812;47.556;18.718;2022-08-19T10:19:59;9.20;;;5.97;;
51242;SDS011;37812;47.556;18.718;2022-08-19T10:22:25;9.45;;;6.00;;
51242;SDS011;37812;47.556;18.718;2022-08-19T10:24:52;9.18;;;5.72;;
51242;SDS011;37812;47.556;18.718;2022-08-19T10:27:19;12.13;;;5.72;;
51242;SDS011;37812;47.556;18.718;2022-08-19T10:29:46;9.05;;;5.55;;
51242;SDS011;37812;47.556;18.718;2022-08-19T10:32:13;9.10;;;6.03;;
51242;SDS011;37812;47.556;18.718;2022-08-19T10:34:40;10.20;;;5.80;;
51242;SDS011;37812;47.556;18.718;2022-08-19T10:37:06;9.40;;;5.95;;
51242;SDS011;37812;47.556;18.718;2022-08-19T10:39:33;9.05;;;5.87;;
51242;SDS011;37812;47.556;18.718;2022-08-19T10:42:03;9.02;;;5.90;;
51242;SDS011;37812;47.556;18.718;2022-08-19T10:44:35;12.05;;;6.12;;
51242;SDS011;37812;47.556;18.718;2022-08-19T10:47:02;9.45;;;6.35;;
51242;SDS011;37812;47.556;18.718;2022-08-19T10:49:29;11.23;;;6.15;;
51242;SDS011;37812;47.556;18.718;2022-08-19T10:51:57;11.02;;;6.03;;
51242;SDS011;37812;47.556;18.718;2022-08-19T10:54:42;9.73;;;5.85;;
51242;SDS011;37812;47.556;18.718;2022-08-19T10:57:30;9.10;;;5.82;;
51242;SDS011;37812;47.556;18.718;2022-08-19T10:59:56;10.38;;;6.10;;
51242;SDS011;37812;47.556;18.718;2022-08-19T11:02:23;9.25;;;5.82;;
51242;SDS011;37812;47.556;18.718;2022-08-19T11:04:49;9.30;;;5.68;;
51242;SDS011;37812;47.556;18.718;2022-08-19T11:07:20;9.80;;;6.00;;
51242;SDS011;37812;47.556;18.718;2022-08-19T11:09:51;9.95;;;5.78;;
51242;SDS011;37812;47.556;18.718;2022-08-19T11:12:17;10.55;;;5.95;;
51242;SDS011;37812;47.556;18.718;2022-08-19T11:14:44;8.95;;;5.47;;
51242;SDS011;37812;47.556;18.718;2022-08-19T11:17:10;11.02;;;6.05;;
51242;SDS011;37812;47.556;18.718;2022-08-19T11:19:39;9.65;;;6.07;;
51242;SDS011;37812;47.556;18.718;2022-08-19T11:22:06;9.60;;;5.70;;
51242;SDS011;37812;47.556;18.718;2022-08-19T11:24:35;8.98;;;5.75;;
51242;SDS011;37812;47.556;18.718;2022-08-19T11:27:04;10.18;;;6.40;;
51242;SDS011;37812;47.556;18.718;2022-08-19T11:29:35;11.25;;;6.20;;
51242;SDS011;37812;47.556;18.718;2022-08-19T11:32:05;9.15;;;5.62;;
51242;SDS011;37812;47.556;18.718;2022-08-19T11:34:32;9.57;;;6.00;;
51242;SDS011;37812;47.556;18.718;2022-08-19T11:37:01;9.70;;;5.75;;
51242;SDS011;37812;47.556;18.718;2022-08-19T11:39:30;10.55;;;5.97;;
51242;SDS011;37812;47.556;18.718;2022-08-19T11:42:00;9.27;;;5.95;;
51242;SDS011;37812;47.556;18.718;2022-08-19T11:44:28;9.60;;;6.07;;
51242;SDS011;37812;47.556;18.718;2022-08-19T11:46:55;10.05;;;7.00;;
51242;SDS011;37812;47.556;18.718;2022-08-19T11:49:21;10.35;;;6.97;;
51242;SDS011;37812;47.556;18.718;2022-08-19T11:51:48;12.30;;;6.60;;
51242;SDS011;37812;47.556;18.718;2022-08-19T11:54:16;10.02;;;6.37;;
51242;SDS011;37812;47.556;18.718;2022-08-19T11:56:42;10.43;;;6.72;;
51242;SDS011;37812;47.556;18.718;2022-08-19T11:59:09;10.50;;;6.93;;
51242;SDS011;37812;47.556;18.718;2022-08-19T12:01:38;10.45;;;6.78;;
51242;SDS011;37812;47.556;18.718;2022-08-19T12:04:06;10.57;;;7.12;;
51242;SDS011;37812;47.556;18.718;2022-08-19T12:06:32;10.88;;;7.43;;
51242;SDS011;37812;47.556;18.718;2022-08-19T12:09:02;10.40;;;6.93;;
51242;SDS011;37812;47.556;18.718;2022-08-19T12:11:31;11.20;;;6.78;;
51242;SDS011;37812;47.556;18.718;2022-08-19T12:13:58;11.02;;;7.28;;
51242;SDS011;37812;47.556;18.718;2022-08-19T12:16:25;9.80;;;6.53;;
51242;SDS011;37812;47.556;18.718;2022-08-19T12:18:53;10.73;;;6.97;;
51242;SDS011;37812;47.556;18.718;2022-08-19T12:21:22;12.00;;;7.95;;
51242;SDS011;37812;47.556;18.718;2022-08-19T12:23:50;12.60;;;7.70;;
51242;SDS011;37812;47.556;18.718;2022-08-19T12:26:17;10.75;;;7.50;;
51242;SDS011;37812;47.556;18.718;2022-08-19T12:28:43;12.13;;;8.27;;
51242;SDS011;37812;47.556;18.718;2022-08-19T12:31:11;13.02;;;8.05;;
51242;SDS011;37812;47.556;18.718;2022-08-19T12:33:47;11.95;;;7.93;;
51242;SDS011;37812;47.556;18.718;2022-08-19T12:36:14;13.50;;;8.65;;
51242;SDS011;37812;47.556;18.718;2022-08-19T12:38:41;12.37;;;8.50;;
51242;SDS011;37812;47.556;18.718;2022-08-19T12:41:13;12.73;;;8.55;;
51242;SDS011;37812;47.556;18.718;2022-08-19T12:43:40;13.40;;;8.40;;
51242;SDS011;37812;47.556;18.718;2022-08-19T12:46:08;11.35;;;7.45;;
51242;SDS011;37812;47.556;18.718;2022-08-19T12:48:34;11.07;;;7.32;;
51242;SDS011;37812;47.556;18.718;2022-08-19T12:51:05;10.18;;;7.47;;
51242;SDS011;37812;47.556;18.718;2022-08-19T12:55:58;15.75;;;7.87;;
51242;SDS011;37812;47.556;18.718;2022-08-19T12:58:25;11.45;;;7.47;;
51242;SDS011;37812;47.556;18.718;2022-08-19T13:00:52;10.95;;;6.50;;
51242;SDS011;37812;47.556;18.718;2022-08-19T13:03:18;9.73;;;6.43;;
51242;SDS011;37812;47.556;18.718;2022-08-19T13:05:44;9.68;;;6.30;;
51242;SDS011;37812;47.556;18.718;2022-08-19T13:08:11;10.73;;;6.87;;
51242;SDS011;37812;47.556;18.718;2022-08-19T13:10:37;9.38;;;5.87;;
51242;SDS011;37812;47.556;18.718;2022-08-19T13:13:05;9.15;;;6.18;;
51242;SDS011;37812;47.556;18.718;2022-08-19T13:15:36;9.53;;;6.60;;
51242;SDS011;37812;47.556;18.718;2022-08-19T13:18:05;10.93;;;6.32;;
51242;SDS011;37812;47.556;18.718;2022-08-19T13:20:34;11.18;;;6.82;;
51242;SDS011;37812;47.556;18.718;2022-08-19T13:23:02;10.63;;;6.53;;
51242;SDS011;37812;47.556;18.718;2022-08-19T13:25:32;10.80;;;5.97;;
51242;SDS011;37812;47.556;18.718;2022-08-19T13:28:04;14.38;;;6.40;;
51242;SDS011;37812;47.556;18.718;2022-08-19T13:30:32;8.98;;;6.32;;
51242;SDS011;37812;47.556;18.718;2022-08-19T13:33:17;10.07;;;6.00;;
51242;SDS011;37812;47.556;18.718;2022-08-19T13:35:50;9.30;;;6.35;;
51242;SDS011;37812;47.556;18.718;2022-08-19T13:38:21;10.25;;;5.87;;
51242;SDS011;37812;47.556;18.718;2022-08-19T13:40:48;10.85;;;6.18;;
51242;SDS011;37812;47.556;18.718;2022-08-19T13:43:15;8.65;;;5.78;;
51242;SDS011;37812;47.556;18.718;2022-08-19T13:45:43;10.48;;;5.85;;
51242;SDS011;37812;47.556;18.718;2022-08-19T13:48:09;9.80;;;5.70;;
51242;SDS011;37812;47.556;18.718;2022-08-19T13:50:37;9.30;;;6.20;;
51242;SDS011;37812;47.556;18.718;2022-08-19T13:53:08;9.90;;;6.00;;
51242;SDS011;37812;47.556;18.718;2022-08-19T13:55:39;9.48;;;6.28;;
51242;SDS011;37812;47.556;18.718;2022-08-19T13:58:07;10.93;;;5.77;;
51242;SDS011;37812;47.556;18.718;2022-08-19T14:00:35;9.38;;;6.15;;
51242;SDS011;37812;47.556;18.718;2022-08-19T14:03:04;9.05;;;5.60;;
51242;SDS011;37812;47.556;18.718;2022-08-19T14:05:30;9.65;;;5.87;;
51242;SDS011;37812;47.556;18.718;2022-08-19T14:07:57;12.65;;;5.82;;
51242;SDS011;37812;47.556;18.718;2022-08-19T14:10:24;9.05;;;5.43;;
51242;SDS011;37812;47.556;18.718;2022-08-19T14:12:54;8.95;;;5.43;;
51242;SDS011;37812;47.556;18.718;2022-08-19T14:15:21;9.80;;;6.03;;
51242;SDS011;37812;47.556;18.718;2022-08-19T14:17:48;10.18;;;5.30;;
51242;SDS011;37812;47.556;18.718;2022-08-19T14:20:14;9.70;;;5.75;;
51242;SDS011;37812;47.556;18.718;2022-08-19T14:22:41;7.85;;;4.90;;
51242;SDS011;37812;47.556;18.718;2022-08-19T14:25:10;9.32;;;5.43;;
51242;SDS011;37812;47.556;18.718;2022-08-19T14:27:40;9.65;;;5.15;;
51242;SDS011;37812;47.556;18.718;2022-08-19T14:30:06;11.32;;;6.07;;
51242;SDS011;37812;47.556;18.718;2022-08-19T14:32:35;9.85;;;5.37;;
51242;SDS011;37812;47.556;18.718;2022-08-19T14:35:05;10.48;;;5.70;;
51242;SDS011;37812;47.556;18.718;2022-08-19T14:37:33;12.10;;;6.18;;
51242;SDS011;37812;47.556;18.718;2022-08-19T14:40:01;9.43;;;5.10;;
51242;SDS011;37812;47.556;18.718;2022-08-19T14:42:29;11.18;;;5.25;;
51242;SDS011;37812;47.556;18.718;2022-08-19T14:44:59;8.77;;;5.28;;
51242;SDS011;37812;47.556;18.718;2022-08-19T14:47:26;8.40;;;5.10;;